sensor_id;sensor_type;location;lat;lon;timestamp;temperature;humidity
2435;DHT22;1228;51.022;6.764;2023-11-19T00:00:09;12.30;99.90
2435;DHT22;1228;51.022;6.764;2023-11-19T00:02:39;12.30;99.90
2435;DHT22;1228;51.022;6.764;2023-11-19T00:05:05;12.30;99.90
2435;DHT22;1228;51.022;6.764;2023-11-19T00:07:35;12.30;99.90
2435;DHT22;1228;51.022;6.764;2023-11-19T00:10:02;12.30;99.90
2435;DHT22;1228;51.022;6.764;2023-11-19T00:12:32;12.40;99.90
2435;DHT22;1228;51.022;6.764;2023-11-19T00:14:57;12.40;99.90
2435;DHT22;1228;51.022;6.764;2023-11-19T00:17:23;12.40;99.90
2435;DHT22;1228;51.022;6.764;2023-11-19T00:19:49;12.30;99.90
2435;DHT22;1228;51.022;6.764;2023-11-19T00:22:17;12.30;99.90
2435;DHT22;1228;51.022;6.764;2023-11-19T00:24:42;12.30;99.90
2435;DHT22;1228;51.022;6.764;2023-11-19T00:27:08;12.30;99.90
2435;DHT22;1228;51.022;6.764;2023-11-19T00:29:33;12.30;99.90
2435;DHT22;1228;51.022;6.764;2023-11-19T00:31:59;12.30;99.90
2435;DHT22;1228;51.022;6.764;2023-11-19T00:34:24;12.30;99.90
2435;DHT22;1228;51.022;6.764;2023-11-19T00:36:50;12.30;99.90
2435;DHT22;1228;51.022;6.764;2023-11-19T00:39:16;12.30;99.90
2435;DHT22;1228;51.022;6.764;2023-11-19T00:41:41;12.40;99.90
2435;DHT22;1228;51.022;6.764;2023-11-19T00:44:07;12.30;99.90
2435;DHT22;1228;51.022;6.764;2023-11-19T00:46:32;12.40;99.90
2435;DHT22;1228;51.022;6.764;2023-11-19T00:48:58;12.30;99.90
2435;DHT22;1228;51.022;6.764;2023-11-19T00:51:26;12.40;99.90
2435;DHT22;1228;51.022;6.764;2023-11-19T00:53:52;12.40;99.90
2435;DHT22;1228;51.022;6.764;2023-11-19T00:56:18;12.40;99.90
2435;DHT22;1228;51.022;6.764;2023-11-19T00:58:45;12.40;99.90
2435;DHT22;1228;51.022;6.764;2023-11-19T01:01:13;12.40;99.90
2435;DHT22;1228;51.022;6.764;2023-11-19T01:03:39;12.40;99.90
2435;DHT22;1228;51.022;6.764;2023-11-19T01:06:05;12.40;99.90
2435;DHT22;1228;51.022;6.764;2023-11-19T01:08:30;12.40;99.90
2435;DHT22;1228;51.022;6.764;2023-11-19T01:10:56;12.50;99.90
2435;DHT22;1228;51.022;6.764;2023-11-19T01:13:22;12.50;99.90
2435;DHT22;1228;51.022;6.764;2023-11-19T01:15:47;12.50;99.90
2435;DHT22;1228;51.022;6.764;2023-11-19T01:18:13;12.50;99.90
2435;DHT22;1228;51.022;6.764;2023-11-19T01:20:39;12.50;99.90
2435;DHT22;1228;51.022;6.764;2023-11-19T01:23:04;12.50;99.90
2435;DHT22;1228;51.022;6.764;2023-11-19T01:25:30;12.50;99.90
2435;DHT22;1228;51.022;6.764;2023-11-19T01:27:56;12.50;99.90
2435;DHT22;1228;51.022;6.764;2023-11-19T01:30:24;12.60;99.90
2435;DHT22;1228;51.022;6.764;2023-11-19T01:32:50;12.60;99.90
2435;DHT22;1228;51.022;6.764;2023-11-19T01:35:16;12.60;99.90
2435;DHT22;1228;51.022;6.764;2023-11-19T01:37:41;12.60;99.90
2435;DHT22;1228;51.022;6.764;2023-11-19T01:40:07;12.60;99.90
2435;DHT22;1228;51.022;6.764;2023-11-19T01:42:39;12.60;99.90
2435;DHT22;1228;51.022;6.764;2023-11-19T01:45:06;12.60;99.90
2435;DHT22;1228;51.022;6.764;2023-11-19T01:47:34;12.60;99.90
2435;DHT22;1228;51.022;6.764;2023-11-19T01:50:01;12.70;99.90
2435;DHT22;1228;51.022;6.764;2023-11-19T01:52:33;12.60;99.90
2435;DHT22;1228;51.022;6.764;2023-11-19T01:54:59;12.70;99.90
2435;DHT22;1228;51.022;6.764;2023-11-19T01:57:25;12.70;99.90
2435;DHT22;1228;51.022;6.764;2023-11-19T01:59:51;12.70;99.90
2435;DHT22;1228;51.022;6.764;2023-11-19T02:02:18;12.80;99.90
2435;DHT22;1228;51.022;6.764;2023-11-19T02:04:49;12.70;99.90
2435;DHT22;1228;51.022;6.764;2023-11-19T02:07:15;12.70;99.90
2435;DHT22;1228;51.022;6.764;2023-11-19T02:09:43;12.80;99.90
2435;DHT22;1228;51.022;6.764;2023-11-19T02:12:09;12.70;99.90
2435;DHT22;1228;51.022;6.764;2023-11-19T02:14:37;12.80;99.90
2435;DHT22;1228;51.022;6.764;2023-11-19T02:17:03;12.80;99.90
2435;DHT22;1228;51.022;6.764;2023-11-19T02:19:29;12.80;99.90
2435;DHT22;1228;51.022;6.764;2023-11-19T02:21:54;12.80;99.90
2435;DHT22;1228;51.022;6.764;2023-11-19T02:24:22;12.80;99.90
2435;DHT22;1228;51.022;6.764;2023-11-19T02:27:17;12.80;99.90
2435;DHT22;1228;51.022;6.764;2023-11-19T02:29:45;12.90;99.90
2435;DHT22;1228;51.022;6.764;2023-11-19T02:32:10;12.90;99.90
2435;DHT22;1228;51.022;6.764;2023-11-19T02:34:38;12.90;99.90
2435;DHT22;1228;51.022;6.764;2023-11-19T02:37:04;12.90;99.90
2435;DHT22;1228;51.022;6.764;2023-11-19T02:39:30;12.90;99.90
2435;DHT22;1228;51.022;6.764;2023-11-19T02:41:55;12.80;99.90
2435;DHT22;1228;51.022;6.764;2023-11-19T02:44:21;12.80;99.90
2435;DHT22;1228;51.022;6.764;2023-11-19T02:46:47;12.70;99.90
2435;DHT22;1228;51.022;6.764;2023-11-19T02:49:14;12.70;99.90
2435;DHT22;1228;51.022;6.764;2023-11-19T02:51:40;12.70;99.90
2435;DHT22;1228;51.022;6.764;2023-11-19T02:54:06;12.70;99.90
2435;DHT22;1228;51.022;6.764;2023-11-19T02:56:31;12.70;99.90
2435;DHT22;1228;51.022;6.764;2023-11-19T02:59:01;12.70;99.90
2435;DHT22;1228;51.022;6.764;2023-11-19T03:01:34;12.70;99.90
2435;DHT22;1228;51.022;6.764;2023-11-19T03:04:01;12.60;99.90
2435;DHT22;1228;51.022;6.764;2023-11-19T03:06:27;12.70;99.90
2435;DHT22;1228;51.022;6.764;2023-11-19T03:08:54;12.60;99.90
2435;DHT22;1228;51.022;6.764;2023-11-19T03:11:20;12.70;99.90
2435;DHT22;1228;51.022;6.764;2023-11-19T03:13:45;12.80;99.90
2435;DHT22;1228;51.022;6.764;2023-11-19T03:16:12;12.90;99.90
2435;DHT22;1228;51.022;6.764;2023-11-19T03:18:38;12.90;99.90
2435;DHT22;1228;51.022;6.764;2023-11-19T03:21:06;12.90;99.90
2435;DHT22;1228;51.022;6.764;2023-11-19T03:23:32;12.90;99.90
2435;DHT22;1228;51.022;6.764;2023-11-19T03:25:57;12.90;99.90
2435;DHT22;1228;51.022;6.764;2023-11-19T03:28:23;12.90;99.90
2435;DHT22;1228;51.022;6.764;2023-11-19T03:30:49;13.00;99.90
2435;DHT22;1228;51.022;6.764;2023-11-19T03:33:14;13.10;99.90
2435;DHT22;1228;51.022;6.764;2023-11-19T03:35:40;13.10;99.90
2435;DHT22;1228;51.022;6.764;2023-11-19T03:38:06;13.10;99.90
2435;DHT22;1228;51.022;6.764;2023-11-19T03:40:32;13.00;99.90
2435;DHT22;1228;51.022;6.764;2023-11-19T03:42:57;13.00;99.90
2435;DHT22;1228;51.022;6.764;2023-11-19T03:45:24;13.00;99.90
2435;DHT22;1228;51.022;6.764;2023-11-19T03:47:50;13.00;99.90
2435;DHT22;1228;51.022;6.764;2023-11-19T03:50:16;13.00;99.90
2435;DHT22;1228;51.022;6.764;2023-11-19T03:52:42;13.10;99.90
2435;DHT22;1228;51.022;6.764;2023-11-19T03:55:07;13.10;99.90
2435;DHT22;1228;51.022;6.764;2023-11-19T03:57:34;13.10;99.90
2435;DHT22;1228;51.022;6.764;2023-11-19T04:00:00;13.10;99.90
2435;DHT22;1228;51.022;6.764;2023-11-19T04:02:31;13.10;99.90
2435;DHT22;1228;51.022;6.764;2023-11-19T04:04:56;13.00;99.90
2435;DHT22;1228;51.022;6.764;2023-11-19T04:07:22;13.00;99.90
2435;DHT22;1228;51.022;6.764;2023-11-19T04:09:48;13.00;99.90
2435;DHT22;1228;51.022;6.764;2023-11-19T04:12:13;13.00;99.90
2435;DHT22;1228;51.022;6.764;2023-11-19T04:14:39;13.00;99.90
2435;DHT22;1228;51.022;6.764;2023-11-19T04:17:05;12.90;99.90
2435;DHT22;1228;51.022;6.764;2023-11-19T04:19:31;12.80;99.90
2435;DHT22;1228;51.022;6.764;2023-11-19T04:21:58;12.70;99.90
2435;DHT22;1228;51.022;6.764;2023-11-19T04:24:23;12.70;99.90
2435;DHT22;1228;51.022;6.764;2023-11-19T04:26:49;12.60;99.90
2435;DHT22;1228;51.022;6.764;2023-11-19T04:29:16;12.60;99.90
2435;DHT22;1228;51.022;6.764;2023-11-19T04:31:45;12.50;99.90
2435;DHT22;1228;51.022;6.764;2023-11-19T04:34:12;12.50;99.90
2435;DHT22;1228;51.022;6.764;2023-11-19T04:36:38;12.50;99.90
2435;DHT22;1228;51.022;6.764;2023-11-19T04:39:04;12.50;99.90
2435;DHT22;1228;51.022;6.764;2023-11-19T04:41:47;12.50;99.90
2435;DHT22;1228;51.022;6.764;2023-11-19T04:44:14;12.40;99.90
2435;DHT22;1228;51.022;6.764;2023-11-19T04:46:41;12.50;99.90
2435;DHT22;1228;51.022;6.764;2023-11-19T04:49:08;12.50;99.90
2435;DHT22;1228;51.022;6.764;2023-11-19T04:51:43;12.60;99.90
2435;DHT22;1228;51.022;6.764;2023-11-19T04:54:09;12.50;99.90
2435;DHT22;1228;51.022;6.764;2023-11-19T04:56:36;12.50;99.90
2435;DHT22;1228;51.022;6.764;2023-11-19T04:59:03;12.50;99.90
2435;DHT22;1228;51.022;6.764;2023-11-19T05:01:29;12.50;99.90
2435;DHT22;1228;51.022;6.764;2023-11-19T05:03:56;12.40;99.90
2435;DHT22;1228;51.022;6.764;2023-11-19T05:06:28;12.50;99.90
2435;DHT22;1228;51.022;6.764;2023-11-19T05:08:58;12.50;99.90
2435;DHT22;1228;51.022;6.764;2023-11-19T05:11:26;12.50;99.90
2435;DHT22;1228;51.022;6.764;2023-11-19T05:13:54;12.50;99.90
2435;DHT22;1228;51.022;6.764;2023-11-19T05:16:19;12.40;99.90
2435;DHT22;1228;51.022;6.764;2023-11-19T05:18:46;12.40;99.90
2435;DHT22;1228;51.022;6.764;2023-11-19T05:21:11;12.40;99.90
2435;DHT22;1228;51.022;6.764;2023-11-19T05:23:37;12.30;99.90
2435;DHT22;1228;51.022;6.764;2023-11-19T05:26:04;12.30;99.90
2435;DHT22;1228;51.022;6.764;2023-11-19T05:28:30;12.30;99.90
2435;DHT22;1228;51.022;6.764;2023-11-19T05:30:56;12.30;99.90
2435;DHT22;1228;51.022;6.764;2023-11-19T05:33:21;12.30;99.90
2435;DHT22;1228;51.022;6.764;2023-11-19T05:35:47;12.20;99.90
2435;DHT22;1228;51.022;6.764;2023-11-19T05:38:12;12.20;99.90
2435;DHT22;1228;51.022;6.764;2023-11-19T05:40:38;12.20;99.90
2435;DHT22;1228;51.022;6.764;2023-11-19T05:43:04;12.20;99.90
2435;DHT22;1228;51.022;6.764;2023-11-19T05:45:31;12.20;99.90
2435;DHT22;1228;51.022;6.764;2023-11-19T05:47:57;12.10;99.90
2435;DHT22;1228;51.022;6.764;2023-11-19T05:50:23;12.10;99.90
2435;DHT22;1228;51.022;6.764;2023-11-19T05:52:49;12.10;99.90
2435;DHT22;1228;51.022;6.764;2023-11-19T05:55:15;12.20;99.90
2435;DHT22;1228;51.022;6.764;2023-11-19T05:57:40;12.20;99.90
2435;DHT22;1228;51.022;6.764;2023-11-19T06:00:07;12.20;99.90
2435;DHT22;1228;51.022;6.764;2023-11-19T06:02:34;12.10;99.90
2435;DHT22;1228;51.022;6.764;2023-11-19T06:05:00;12.10;99.90
2435;DHT22;1228;51.022;6.764;2023-11-19T06:07:27;12.10;99.90
2435;DHT22;1228;51.022;6.764;2023-11-19T06:09:53;12.00;99.90
2435;DHT22;1228;51.022;6.764;2023-11-19T06:12:18;12.00;99.90
2435;DHT22;1228;51.022;6.764;2023-11-19T06:14:44;12.00;99.90
2435;DHT22;1228;51.022;6.764;2023-11-19T06:17:10;12.00;99.90
2435;DHT22;1228;51.022;6.764;2023-11-19T06:19:37;12.00;99.90
2435;DHT22;1228;51.022;6.764;2023-11-19T06:22:03;12.00;99.90
2435;DHT22;1228;51.022;6.764;2023-11-19T06:24:29;12.00;99.90
2435;DHT22;1228;51.022;6.764;2023-11-19T06:26:55;12.00;99.90
2435;DHT22;1228;51.022;6.764;2023-11-19T06:29:20;12.00;99.90
2435;DHT22;1228;51.022;6.764;2023-11-19T06:31:46;12.00;99.90
2435;DHT22;1228;51.022;6.764;2023-11-19T06:34:14;12.00;99.90
2435;DHT22;1228;51.022;6.764;2023-11-19T06:36:40;12.00;99.90
2435;DHT22;1228;51.022;6.764;2023-11-19T06:39:06;12.00;99.90
2435;DHT22;1228;51.022;6.764;2023-11-19T06:41:31;12.00;99.90
2435;DHT22;1228;51.022;6.764;2023-11-19T06:43:57;12.00;99.90
2435;DHT22;1228;51.022;6.764;2023-11-19T06:46:23;11.90;99.90
2435;DHT22;1228;51.022;6.764;2023-11-19T06:48:48;11.90;99.90
2435;DHT22;1228;51.022;6.764;2023-11-19T06:51:14;11.90;99.90
2435;DHT22;1228;51.022;6.764;2023-11-19T06:53:39;11.90;99.90
2435;DHT22;1228;51.022;6.764;2023-11-19T06:56:20;11.90;99.90
2435;DHT22;1228;51.022;6.764;2023-11-19T06:58:46;11.90;99.90
2435;DHT22;1228;51.022;6.764;2023-11-19T07:01:13;11.80;99.90
2435;DHT22;1228;51.022;6.764;2023-11-19T07:03:39;11.80;99.90
2435;DHT22;1228;51.022;6.764;2023-11-19T07:06:05;11.80;99.90
2435;DHT22;1228;51.022;6.764;2023-11-19T07:08:31;11.80;99.90
2435;DHT22;1228;51.022;6.764;2023-11-19T07:10:56;11.80;99.90
2435;DHT22;1228;51.022;6.764;2023-11-19T07:13:22;11.80;99.90
2435;DHT22;1228;51.022;6.764;2023-11-19T07:15:47;11.70;99.90
2435;DHT22;1228;51.022;6.764;2023-11-19T07:18:13;11.70;99.90
2435;DHT22;1228;51.022;6.764;2023-11-19T07:20:39;11.70;99.90
2435;DHT22;1228;51.022;6.764;2023-11-19T07:23:05;11.70;99.90
2435;DHT22;1228;51.022;6.764;2023-11-19T07:25:31;11.70;99.90
2435;DHT22;1228;51.022;6.764;2023-11-19T07:27:57;11.70;99.90
2435;DHT22;1228;51.022;6.764;2023-11-19T07:30:22;11.70;99.90
2435;DHT22;1228;51.022;6.764;2023-11-19T07:32:48;11.70;99.90
2435;DHT22;1228;51.022;6.764;2023-11-19T07:35:14;11.80;99.90
2435;DHT22;1228;51.022;6.764;2023-11-19T07:37:41;11.80;99.90
2435;DHT22;1228;51.022;6.764;2023-11-19T07:40:08;11.90;99.90
2435;DHT22;1228;51.022;6.764;2023-11-19T07:42:33;11.90;99.90
2435;DHT22;1228;51.022;6.764;2023-11-19T07:44:59;11.90;99.90
2435;DHT22;1228;51.022;6.764;2023-11-19T07:47:25;11.90;99.90
2435;DHT22;1228;51.022;6.764;2023-11-19T07:49:51;11.90;99.90
2435;DHT22;1228;51.022;6.764;2023-11-19T07:52:17;12.00;99.90
2435;DHT22;1228;51.022;6.764;2023-11-19T07:54:42;12.00;99.90
2435;DHT22;1228;51.022;6.764;2023-11-19T07:57:08;12.10;99.90
2435;DHT22;1228;51.022;6.764;2023-11-19T07:59:33;12.10;99.90
2435;DHT22;1228;51.022;6.764;2023-11-19T08:01:59;12.10;99.90
2435;DHT22;1228;51.022;6.764;2023-11-19T08:04:25;12.20;99.90
2435;DHT22;1228;51.022;6.764;2023-11-19T08:06:50;12.20;99.90
2435;DHT22;1228;51.022;6.764;2023-11-19T08:09:17;12.30;99.90
2435;DHT22;1228;51.022;6.764;2023-11-19T08:11:43;12.50;99.90
2435;DHT22;1228;51.022;6.764;2023-11-19T08:14:09;12.70;99.90
2435;DHT22;1228;51.022;6.764;2023-11-19T08:16:34;13.00;99.90
2435;DHT22;1228;51.022;6.764;2023-11-19T08:19:00;13.20;99.90
2435;DHT22;1228;51.022;6.764;2023-11-19T08:21:25;13.40;99.90
2435;DHT22;1228;51.022;6.764;2023-11-19T08:23:52;13.60;99.90
2435;DHT22;1228;51.022;6.764;2023-11-19T08:26:18;13.70;99.90
2435;DHT22;1228;51.022;6.764;2023-11-19T08:28:43;13.70;99.90
2435;DHT22;1228;51.022;6.764;2023-11-19T08:31:09;13.70;99.90
2435;DHT22;1228;51.022;6.764;2023-11-19T08:33:34;13.80;99.90
2435;DHT22;1228;51.022;6.764;2023-11-19T08:36:01;13.90;99.90
2435;DHT22;1228;51.022;6.764;2023-11-19T08:38:26;14.00;99.90
2435;DHT22;1228;51.022;6.764;2023-11-19T08:40:52;14.10;99.90
2435;DHT22;1228;51.022;6.764;2023-11-19T08:43:17;14.20;99.90
2435;DHT22;1228;51.022;6.764;2023-11-19T08:45:43;14.30;99.90
2435;DHT22;1228;51.022;6.764;2023-11-19T08:48:09;14.30;99.90
2435;DHT22;1228;51.022;6.764;2023-11-19T08:50:34;14.40;99.90
2435;DHT22;1228;51.022;6.764;2023-11-19T08:53:00;14.40;99.90
2435;DHT22;1228;51.022;6.764;2023-11-19T08:55:25;14.60;99.90
2435;DHT22;1228;51.022;6.764;2023-11-19T08:57:51;14.50;99.90
2435;DHT22;1228;51.022;6.764;2023-11-19T09:00:17;14.50;99.90
2435;DHT22;1228;51.022;6.764;2023-11-19T09:02:43;14.50;99.90
2435;DHT22;1228;51.022;6.764;2023-11-19T09:05:09;14.60;99.90
2435;DHT22;1228;51.022;6.764;2023-11-19T09:07:34;14.70;99.90
2435;DHT22;1228;51.022;6.764;2023-11-19T09:10:00;14.80;99.90
2435;DHT22;1228;51.022;6.764;2023-11-19T09:12:25;14.90;99.90
2435;DHT22;1228;51.022;6.764;2023-11-19T09:14:51;14.90;99.90
2435;DHT22;1228;51.022;6.764;2023-11-19T09:17:16;14.90;99.90
2435;DHT22;1228;51.022;6.764;2023-11-19T09:19:43;14.80;99.90
2435;DHT22;1228;51.022;6.764;2023-11-19T09:22:09;14.80;99.90
2435;DHT22;1228;51.022;6.764;2023-11-19T09:24:34;14.80;99.90
2435;DHT22;1228;51.022;6.764;2023-11-19T09:27:00;14.70;99.90
2435;DHT22;1228;51.022;6.764;2023-11-19T09:29:25;14.60;99.90
2435;DHT22;1228;51.022;6.764;2023-11-19T09:31:51;14.70;99.90
2435;DHT22;1228;51.022;6.764;2023-11-19T09:34:17;14.90;99.90
2435;DHT22;1228;51.022;6.764;2023-11-19T09:36:42;15.30;99.90
2435;DHT22;1228;51.022;6.764;2023-11-19T09:39:13;15.50;99.90
2435;DHT22;1228;51.022;6.764;2023-11-19T09:41:40;15.60;99.90
2435;DHT22;1228;51.022;6.764;2023-11-19T09:44:08;15.70;99.90
2435;DHT22;1228;51.022;6.764;2023-11-19T09:46:34;15.50;99.90
2435;DHT22;1228;51.022;6.764;2023-11-19T09:49:01;15.40;99.90
2435;DHT22;1228;51.022;6.764;2023-11-19T09:51:27;15.30;99.90
2435;DHT22;1228;51.022;6.764;2023-11-19T09:53:53;15.10;99.90
2435;DHT22;1228;51.022;6.764;2023-11-19T09:56:19;14.90;99.90
2435;DHT22;1228;51.022;6.764;2023-11-19T09:58:45;14.70;99.90
2435;DHT22;1228;51.022;6.764;2023-11-19T10:01:12;14.80;99.90
2435;DHT22;1228;51.022;6.764;2023-11-19T10:03:38;15.00;99.90
2435;DHT22;1228;51.022;6.764;2023-11-19T10:06:08;15.10;99.90
2435;DHT22;1228;51.022;6.764;2023-11-19T10:08:38;15.20;99.90
2435;DHT22;1228;51.022;6.764;2023-11-19T10:11:08;15.20;99.90
2435;DHT22;1228;51.022;6.764;2023-11-19T10:13:35;15.20;99.90
2435;DHT22;1228;51.022;6.764;2023-11-19T10:16:07;15.30;99.90
2435;DHT22;1228;51.022;6.764;2023-11-19T10:18:34;15.40;99.90
2435;DHT22;1228;51.022;6.764;2023-11-19T10:21:06;15.50;99.90
2435;DHT22;1228;51.022;6.764;2023-11-19T10:23:55;15.60;99.90
2435;DHT22;1228;51.022;6.764;2023-11-19T10:26:23;15.40;99.90
2435;DHT22;1228;51.022;6.764;2023-11-19T10:28:49;15.30;99.90
2435;DHT22;1228;51.022;6.764;2023-11-19T10:31:16;15.30;99.90
2435;DHT22;1228;51.022;6.764;2023-11-19T10:33:42;15.10;99.90
2435;DHT22;1228;51.022;6.764;2023-11-19T10:36:10;15.10;99.90
2435;DHT22;1228;51.022;6.764;2023-11-19T10:38:37;15.10;99.90
2435;DHT22;1228;51.022;6.764;2023-11-19T10:41:03;15.00;99.90
2435;DHT22;1228;51.022;6.764;2023-11-19T10:43:31;15.20;99.90
2435;DHT22;1228;51.022;6.764;2023-11-19T10:46:09;15.30;99.90
2435;DHT22;1228;51.022;6.764;2023-11-19T10:48:36;15.40;99.90
2435;DHT22;1228;51.022;6.764;2023-11-19T10:51:05;15.60;99.90
2435;DHT22;1228;51.022;6.764;2023-11-19T10:53:35;15.80;99.90
2435;DHT22;1228;51.022;6.764;2023-11-19T10:56:02;15.90;99.90
2435;DHT22;1228;51.022;6.764;2023-11-19T10:58:32;15.90;99.90
2435;DHT22;1228;51.022;6.764;2023-11-19T11:01:03;15.70;99.90
2435;DHT22;1228;51.022;6.764;2023-11-19T11:03:39;15.40;99.90
2435;DHT22;1228;51.022;6.764;2023-11-19T11:06:06;15.10;99.90
2435;DHT22;1228;51.022;6.764;2023-11-19T11:08:32;14.80;99.90
2435;DHT22;1228;51.022;6.764;2023-11-19T11:11:02;14.60;99.90
2435;DHT22;1228;51.022;6.764;2023-11-19T11:13:30;14.50;99.90
2435;DHT22;1228;51.022;6.764;2023-11-19T11:15:57;14.30;99.90
2435;DHT22;1228;51.022;6.764;2023-11-19T11:18:24;14.40;99.90
2435;DHT22;1228;51.022;6.764;2023-11-19T11:21:02;14.70;99.90
2435;DHT22;1228;51.022;6.764;2023-11-19T11:26:41;15.20;99.90
2435;DHT22;1228;51.022;6.764;2023-11-19T11:29:20;15.40;99.90
2435;DHT22;1228;51.022;6.764;2023-11-19T11:37:49;15.10;99.90
2435;DHT22;1228;51.022;6.764;2023-11-19T11:40:16;15.30;99.90
2435;DHT22;1228;51.022;6.764;2023-11-19T11:42:44;15.40;99.90
2435;DHT22;1228;51.022;6.764;2023-11-19T11:45:14;15.60;99.90
2435;DHT22;1228;51.022;6.764;2023-11-19T11:50:30;15.50;99.90
2435;DHT22;1228;51.022;6.764;2023-11-19T11:58:13;15.20;99.90
2435;DHT22;1228;51.022;6.764;2023-11-19T12:00:41;15.00;99.90
2435;DHT22;1228;51.022;6.764;2023-11-19T12:03:11;14.90;99.90
2435;DHT22;1228;51.022;6.764;2023-11-19T12:05:45;14.90;99.90
2435;DHT22;1228;51.022;6.764;2023-11-19T12:08:12;14.80;99.90
2435;DHT22;1228;51.022;6.764;2023-11-19T12:10:50;14.80;99.90
2435;DHT22;1228;51.022;6.764;2023-11-19T12:13:18;14.80;99.90
2435;DHT22;1228;51.022;6.764;2023-11-19T12:18:27;14.90;99.90
2435;DHT22;1228;51.022;6.764;2023-11-19T12:20:52;14.80;99.90
2435;DHT22;1228;51.022;6.764;2023-11-19T12:23:18;14.70;99.90
2435;DHT22;1228;51.022;6.764;2023-11-19T12:25:44;14.60;99.90
2435;DHT22;1228;51.022;6.764;2023-11-19T12:28:15;14.50;99.90
2435;DHT22;1228;51.022;6.764;2023-11-19T12:30:42;14.50;99.90
2435;DHT22;1228;51.022;6.764;2023-11-19T12:33:09;14.50;99.90
2435;DHT22;1228;51.022;6.764;2023-11-19T12:35:42;14.50;99.90
2435;DHT22;1228;51.022;6.764;2023-11-19T12:38:18;14.60;99.90
2435;DHT22;1228;51.022;6.764;2023-11-19T12:40:43;14.60;99.90
2435;DHT22;1228;51.022;6.764;2023-11-19T12:43:09;14.60;99.90
2435;DHT22;1228;51.022;6.764;2023-11-19T12:45:36;14.60;99.90
2435;DHT22;1228;51.022;6.764;2023-11-19T12:48:05;14.50;99.90
2435;DHT22;1228;51.022;6.764;2023-11-19T12:50:51;14.50;99.90
2435;DHT22;1228;51.022;6.764;2023-11-19T12:53:20;14.60;99.90
2435;DHT22;1228;51.022;6.764;2023-11-19T12:55:46;14.60;99.90
2435;DHT22;1228;51.022;6.764;2023-11-19T12:58:34;14.60;99.90
2435;DHT22;1228;51.022;6.764;2023-11-19T13:01:08;14.60;99.90
2435;DHT22;1228;51.022;6.764;2023-11-19T13:03:36;14.40;99.90
2435;DHT22;1228;51.022;6.764;2023-11-19T13:06:07;14.20;99.90
2435;DHT22;1228;51.022;6.764;2023-11-19T13:08:51;14.10;99.90
2435;DHT22;1228;51.022;6.764;2023-11-19T13:11:33;14.00;99.90
2435;DHT22;1228;51.022;6.764;2023-11-19T13:14:02;14.10;99.90
2435;DHT22;1228;51.022;6.764;2023-11-19T13:16:30;14.30;99.90
2435;DHT22;1228;51.022;6.764;2023-11-19T13:18:56;14.50;99.90
2435;DHT22;1228;51.022;6.764;2023-11-19T13:21:23;14.50;99.90
2435;DHT22;1228;51.022;6.764;2023-11-19T13:23:48;14.50;99.90
2435;DHT22;1228;51.022;6.764;2023-11-19T13:26:14;14.40;99.90
2435;DHT22;1228;51.022;6.764;2023-11-19T13:28:40;14.20;99.90
2435;DHT22;1228;51.022;6.764;2023-11-19T13:31:05;14.10;99.90
2435;DHT22;1228;51.022;6.764;2023-11-19T13:33:31;14.00;99.90
2435;DHT22;1228;51.022;6.764;2023-11-19T13:35:57;14.00;99.90
2435;DHT22;1228;51.022;6.764;2023-11-19T13:38:23;14.10;99.90
2435;DHT22;1228;51.022;6.764;2023-11-19T13:40:49;14.10;99.90
2435;DHT22;1228;51.022;6.764;2023-11-19T13:43:15;14.10;99.90
2435;DHT22;1228;51.022;6.764;2023-11-19T13:45:40;14.30;99.90
2435;DHT22;1228;51.022;6.764;2023-11-19T13:48:06;14.30;99.90
2435;DHT22;1228;51.022;6.764;2023-11-19T13:50:31;14.40;99.90
2435;DHT22;1228;51.022;6.764;2023-11-19T13:52:59;14.40;99.90
2435;DHT22;1228;51.022;6.764;2023-11-19T13:55:25;14.40;99.90
2435;DHT22;1228;51.022;6.764;2023-11-19T13:57:51;14.50;99.90
2435;DHT22;1228;51.022;6.764;2023-11-19T14:00:17;14.50;99.90
2435;DHT22;1228;51.022;6.764;2023-11-19T14:02:47;14.40;99.90
2435;DHT22;1228;51.022;6.764;2023-11-19T14:05:13;14.30;99.90
2435;DHT22;1228;51.022;6.764;2023-11-19T14:07:42;14.30;99.90
2435;DHT22;1228;51.022;6.764;2023-11-19T14:10:09;14.30;99.90
2435;DHT22;1228;51.022;6.764;2023-11-19T14:12:37;14.20;99.90
2435;DHT22;1228;51.022;6.764;2023-11-19T14:15:03;14.10;99.90
2435;DHT22;1228;51.022;6.764;2023-11-19T14:17:31;14.10;99.90
2435;DHT22;1228;51.022;6.764;2023-11-19T14:19:56;14.00;99.90
2435;DHT22;1228;51.022;6.764;2023-11-19T14:22:22;14.00;99.90
2435;DHT22;1228;51.022;6.764;2023-11-19T14:24:48;14.00;99.90
2435;DHT22;1228;51.022;6.764;2023-11-19T14:27:13;14.00;99.90
2435;DHT22;1228;51.022;6.764;2023-11-19T14:29:39;14.00;99.90
2435;DHT22;1228;51.022;6.764;2023-11-19T14:32:05;13.90;99.90
2435;DHT22;1228;51.022;6.764;2023-11-19T14:34:31;13.90;99.90
2435;DHT22;1228;51.022;6.764;2023-11-19T14:36:58;13.90;99.90
2435;DHT22;1228;51.022;6.764;2023-11-19T14:39:24;13.90;99.90
2435;DHT22;1228;51.022;6.764;2023-11-19T14:41:50;13.90;99.90
2435;DHT22;1228;51.022;6.764;2023-11-19T14:44:16;13.90;99.90
2435;DHT22;1228;51.022;6.764;2023-11-19T14:46:42;14.00;99.90
2435;DHT22;1228;51.022;6.764;2023-11-19T14:49:08;14.00;99.90
2435;DHT22;1228;51.022;6.764;2023-11-19T14:51:37;14.00;99.90
2435;DHT22;1228;51.022;6.764;2023-11-19T14:54:06;13.90;99.90
2435;DHT22;1228;51.022;6.764;2023-11-19T14:56:32;13.90;99.90
2435;DHT22;1228;51.022;6.764;2023-11-19T14:58:58;13.80;99.90
2435;DHT22;1228;51.022;6.764;2023-11-19T15:01:24;13.70;99.90
2435;DHT22;1228;51.022;6.764;2023-11-19T15:03:50;13.70;99.90
2435;DHT22;1228;51.022;6.764;2023-11-19T15:06:16;13.70;99.90
2435;DHT22;1228;51.022;6.764;2023-11-19T15:08:42;13.50;99.90
2435;DHT22;1228;51.022;6.764;2023-11-19T15:11:08;13.40;99.90
2435;DHT22;1228;51.022;6.764;2023-11-19T15:13:35;13.30;99.90
2435;DHT22;1228;51.022;6.764;2023-11-19T15:16:03;13.30;99.90
2435;DHT22;1228;51.022;6.764;2023-11-19T15:18:31;13.30;99.90
2435;DHT22;1228;51.022;6.764;2023-11-19T15:20:56;13.30;99.90
2435;DHT22;1228;51.022;6.764;2023-11-19T15:23:22;13.10;99.90
2435;DHT22;1228;51.022;6.764;2023-11-19T15:25:48;13.00;99.90
2435;DHT22;1228;51.022;6.764;2023-11-19T15:28:14;12.80;99.90
2435;DHT22;1228;51.022;6.764;2023-11-19T15:30:40;12.70;99.90
2435;DHT22;1228;51.022;6.764;2023-11-19T15:33:05;12.50;99.90
2435;DHT22;1228;51.022;6.764;2023-11-19T15:35:31;12.50;99.90
2435;DHT22;1228;51.022;6.764;2023-11-19T15:37:57;12.40;99.90
2435;DHT22;1228;51.022;6.764;2023-11-19T15:40:22;12.30;99.90
2435;DHT22;1228;51.022;6.764;2023-11-19T15:42:48;12.30;99.90
2435;DHT22;1228;51.022;6.764;2023-11-19T15:45:13;12.20;99.90
2435;DHT22;1228;51.022;6.764;2023-11-19T15:47:41;12.20;99.90
2435;DHT22;1228;51.022;6.764;2023-11-19T15:50:07;12.20;99.90
2435;DHT22;1228;51.022;6.764;2023-11-19T15:52:35;12.20;99.90
2435;DHT22;1228;51.022;6.764;2023-11-19T15:55:01;12.10;99.90
2435;DHT22;1228;51.022;6.764;2023-11-19T15:57:26;12.10;99.90
2435;DHT22;1228;51.022;6.764;2023-11-19T15:59:52;12.10;99.90
2435;DHT22;1228;51.022;6.764;2023-11-19T16:02:18;12.00;99.90
2435;DHT22;1228;51.022;6.764;2023-11-19T16:04:43;12.00;99.90
2435;DHT22;1228;51.022;6.764;2023-11-19T16:07:13;12.10;99.90
2435;DHT22;1228;51.022;6.764;2023-11-19T16:09:39;12.10;99.90
2435;DHT22;1228;51.022;6.764;2023-11-19T16:12:05;12.20;99.90
2435;DHT22;1228;51.022;6.764;2023-11-19T16:14:31;12.20;99.90
2435;DHT22;1228;51.022;6.764;2023-11-19T16:16:57;12.20;99.90
2435;DHT22;1228;51.022;6.764;2023-11-19T16:19:22;12.20;99.90